Etusivu
METAR-TAF:

METAR-TAF

Lentoasemat :

Çardak, Turkki

Leveyspiiri: 37-47N, Pituuspiiri: 029-42E, korkeus merenpinnasta: 849 m

Tämänhetkinen sää

Tämä raportti tehtiin 43 minuuttia sitten, kello 06.50 UTC
Tuuli 7 kn kaakosta, vaihdellen idän ja etelän välillä
Lämpötila 11°C
Kosteus 58%
Ilmanpaine 1010 hPa
Näkyvyys 10 km tai enemmän
Muutamia pilviä 3500 ft:n korkeudessa
Hajanaisia pilviä 10000 ft:n korkeudessa

METAR: LTAY 020650Z 14007KT 100V180 9999 FEW035 SCT100 11/03 Q1010

Aika: 10:33 (07:33 UTC)

Sääennuste

Tämä raportti tehtiin 2 tuntia ja 53 minuuttia sitten, kello 04.40 UTC
Ennuste voimassa 02. päivästä klo 06 UTC - 02. päivään klo 15 UTC
Tuuli 2 kn eri suunnista
Näkyvyys 10 km tai enemmän
Hajanaisia pilviä 3500 ft:n korkeudessa
Hajonneita pilviä 10000 ft:n korkeudessa
Tulossa
02. päivästä klo 07 UTC - 02. päivään klo 09 UTC
Tuuli 15 kn lounaasta puuskistuen 25 kn:hen

TAF: LTAY 020440Z 0206/0215 VRB02KT 9999 SCT035 BKN100 BECMG 0207/0209 22015G25KT

Säähavainnot ja -ennusteet yli 4000 lentoasemalta (METAR- ja TAF-raportit).

Käytössä olevat sääasemat on merkitty karttaan keltaisilla ja punaisilla pisteillä.

Aseta hiiri pisteen päälle nähdäksesi sääaseman nimen.

Klikkaa sitten nähdäksesi säähavainnot ja -ennusteet.

Kartan vaihtaminen: klikkaa mustalla rastilla varustettuja vihreitä pisteitä, niin voit zoomata sisään; viivalla varustettua vihreää pistettä, niin voit zoomata ulos tai vihreitä nuolia, niin pääset viereisille kartoille.


METAR-TAF: